Back to the list

JULIET from the 02/04/2005 to the 16/04/2005

Lat °S Lon °E Intensity Pressure hPa MeanMaxWind Gusts Type Date
10.42 99.88 2 1000 25 kt, 46 km/h 35 kt, 65 km/h Tropical disturbance 02/04/2005 1800
11.53 98.94 2.5 999 30 kt, 56 km/h 40 kt, 74 km/h Tropical depression 03/04/2005 0000
12 98.36 2.5 998 30 kt, 56 km/h 40 kt, 74 km/h Tropical depression 03/04/2005 0600
12.34 97.84 2.5 995 35 kt, 65 km/h 50 kt, 93 km/h Moderate tropical storm 03/04/2005 1200
12.86 96.93 3 993 37 kt, 69 km/h 50 kt, 93 km/h Moderate tropical storm 03/04/2005 1800
13.19 95.66 3.5 987 45 kt, 83 km/h 65 kt, 120 km/h Severe tropical storm 04/04/2005 0000
13.36 94.7 3.5 985 50 kt, 93 km/h 70 kt, 130 km/h Severe tropical storm 04/04/2005 0600
13.43 93.89 3.5 984 50 kt, 93 km/h 70 kt, 130 km/h Severe tropical storm 04/04/2005 1200
13.42 92.86 4 980 55 kt, 102 km/h 75 kt, 139 km/h Severe tropical storm 04/04/2005 1800
13.3 91.84 4.5 970 65 kt, 120 km/h 90 kt, 167 km/h Tropical cyclone 05/04/2005 0000
13.11 90.82 4.5 970 65 kt, 120 km/h 90 kt, 167 km/h Tropical cyclone 05/04/2005 0600
13 90.07 4.5 965 70 kt, 130 km/h 100 kt, 185 km/h Tropical cyclone 05/04/2005 1200
12.91 89.25 5 955 80 kt, 148 km/h 115 kt, 213 km/h Tropical cyclone 05/04/2005 1800
12.9 88.59 5.5 950 85 kt, 157 km/h 120 kt, 222 km/h Tropical cyclone 06/04/2005 0000
13.05 87.51 6 930 100 kt, 185 km/h 140 kt, 259 km/h Intense tropical cyclone 06/04/2005 0600
13.32 86.42 6 930 100 kt, 185 km/h 140 kt, 259 km/h Intense tropical cyclone 06/04/2005 1200
13.75 85.25 5.5 935 95 kt, 176 km/h 135 kt, 250 km/h Intense tropical cyclone 06/04/2005 1800
14.15 84.1 5.5 948 85 kt, 157 km/h 120 kt, 222 km/h Tropical cyclone 07/04/2005 0000
14.48 82.47 5 955 80 kt, 148 km/h 115 kt, 213 km/h Tropical cyclone 07/04/2005 0600
14.75 81.25 4.5 965 70 kt, 130 km/h 100 kt, 185 km/h Tropical cyclone 07/04/2005 1200
15.07 79.47 4.5 965 70 kt, 130 km/h 100 kt, 185 km/h Tropical cyclone 07/04/2005 1800
15.24 78.26 5 955 80 kt, 148 km/h 115 kt, 213 km/h Tropical cyclone 08/04/2005 0000
15.49 76.76 5 955 80 kt, 148 km/h 115 kt, 213 km/h Tropical cyclone 08/04/2005 0600
15.92 75.01 5 955 80 kt, 148 km/h 115 kt, 213 km/h Tropical cyclone 08/04/2005 1200
16.34 73.25 5.5 950 85 kt, 157 km/h 120 kt, 222 km/h Tropical cyclone 08/04/2005 1800
16.81 71.61 6 930 100 kt, 185 km/h 140 kt, 259 km/h Intense tropical cyclone 09/04/2005 0000
17.35 69.88 6.5 915 115 kt, 213 km/h 160 kt, 296 km/h Intense tropical cyclone 09/04/2005 0600
17.89 68.5 7 905 120 kt, 222 km/h 170 kt, 315 km/h Very intense tropical cyclone 09/04/2005 1200
18.45 67.17 7 905 120 kt, 222 km/h 170 kt, 315 km/h Very intense tropical cyclone 09/04/2005 1800
19.13 66.07 7 905 120 kt, 222 km/h 170 kt, 315 km/h Very intense tropical cyclone 10/04/2005 0000
19.92 64.92 6.5 910 115 kt, 213 km/h 160 kt, 296 km/h Intense tropical cyclone 10/04/2005 0600
20.69 64.29 6.5 915 110 kt, 204 km/h 155 kt, 287 km/h Intense tropical cyclone 10/04/2005 1200
21.41 63.87 6 925 105 kt, 194 km/h 150 kt, 278 km/h Intense tropical cyclone 10/04/2005 1800
22.32 63.48 5.5 935 95 kt, 176 km/h 135 kt, 250 km/h Intense tropical cyclone 11/04/2005 0000
23.14 63.34 5.5 950 85 kt, 157 km/h 120 kt, 222 km/h Tropical cyclone 11/04/2005 0600
24.4 63.6 4.5 965 70 kt, 130 km/h 100 kt, 185 km/h Tropical cyclone 11/04/2005 1200
25.35 64.06 4.5 970 65 kt, 120 km/h 90 kt, 167 km/h Tropical cyclone 11/04/2005 1800
26.34 64.93 970 65 kt, 120 km/h 90 kt, 167 km/h Extratropical depression 12/04/2005 0000
27.1 66.09 975 60 kt, 111 km/h 85 kt, 157 km/h Extratropical depression 12/04/2005 0600
27.67 67.5 975 60 kt, 111 km/h 85 kt, 157 km/h Extratropical depression 12/04/2005 1200
28.09 69.33 980 55 kt, 102 km/h 75 kt, 139 km/h Extratropical depression 12/04/2005 1800
28.24 71.12 990 45 kt, 83 km/h 65 kt, 120 km/h Extratropical depression 13/04/2005 0000
28.35 72.59 992 43 kt, 80 km/h 60 kt, 111 km/h Extratropical depression 13/04/2005 0600
28.72 74.35 997 40 kt, 74 km/h 55 kt, 102 km/h Extratropical depression 13/04/2005 1200
29.18 75.95 1000 35 kt, 65 km/h 50 kt, 93 km/h Extratropical depression 13/04/2005 1800
29.06 76.71 1001 33 kt, 61 km/h 45 kt, 83 km/h Extratropical depression 14/04/2005 0000
28.85 77.43 1003 30 kt, 56 km/h 40 kt, 74 km/h Extratropical depression 14/04/2005 0600
28.51 78.34 1005 25 kt, 46 km/h 35 kt, 65 km/h Extratropical depression 14/04/2005 1200
28.27 79.32 1005 25 kt, 46 km/h 35 kt, 65 km/h Extratropical depression 14/04/2005 1800
28.55 80.65 1006 25 kt, 46 km/h 35 kt, 65 km/h Extratropical depression 15/04/2005 0000
29.6 81.94 1007 25 kt, 46 km/h 35 kt, 65 km/h Depression filling up 15/04/2005 0600
31.18 83.58 1007 25 kt, 46 km/h 35 kt, 65 km/h Depression filling up 15/04/2005 1200
31.78 84.22 1008 25 kt, 46 km/h 35 kt, 65 km/h Depression filling up 15/04/2005 1800
32.25 84.72 1009 20 kt, 37 km/h 30 kt, 56 km/h Depression filling up 16/04/2005 0000
33.14 85.67 1010 20 kt, 37 km/h 30 kt, 56 km/h Depression filling up 16/04/2005 0600